createdAt,value
2023-05-12T00:01:39.452Z,13.23
2023-05-12T00:04:07.496Z,14.20
2023-05-12T00:06:35.237Z,13.38
2023-05-12T00:09:02.928Z,13.63
2023-05-12T00:11:30.618Z,13.25
2023-05-12T00:13:59.608Z,14.07
2023-05-12T00:16:28.195Z,13.65
2023-05-12T00:18:56.112Z,12.98
2023-05-12T00:21:24.102Z,12.57
2023-05-12T00:23:51.760Z,13.55
2023-05-12T00:26:19.432Z,14.85
2023-05-12T00:28:47.622Z,12.43
2023-05-12T00:31:17.005Z,14.35
2023-05-12T00:33:44.692Z,12.48
2023-05-12T00:36:12.525Z,13.63
2023-05-12T00:38:41.230Z,14.98
2023-05-12T00:41:09.001Z,12.77
2023-05-12T00:43:37.138Z,13.88
2023-05-12T00:46:07.186Z,12.45
2023-05-12T00:48:36.981Z,13.63
2023-05-12T00:51:06.148Z,12.93
2023-05-12T00:53:47.712Z,13.65
2023-05-12T00:56:19.703Z,13.45
2023-05-12T00:58:47.680Z,12.90
2023-05-12T01:01:15.907Z,14.18
2023-05-12T01:03:45.302Z,13.35
2023-05-12T01:06:16.593Z,14.85
2023-05-12T01:08:44.967Z,13.68
2023-05-12T01:11:12.563Z,14.90
2023-05-12T01:13:41.152Z,14.18
2023-05-12T01:16:10.648Z,13.18
2023-05-12T01:18:39.651Z,13.50
2023-05-12T01:21:09.595Z,13.75
2023-05-12T01:23:40.998Z,14.23
2023-05-12T01:26:10.912Z,13.98
2023-05-12T01:28:41.040Z,13.27
2023-05-12T01:31:09.756Z,14.68
2023-05-12T01:33:37.796Z,13.05
2023-05-12T01:36:06.246Z,15.95
2023-05-12T01:38:33.956Z,14.93
2023-05-12T01:41:02.120Z,14.60
2023-05-12T01:43:31.119Z,12.85
2023-05-12T01:45:58.973Z,15.52
2023-05-12T01:48:26.945Z,14.43
2023-05-12T01:50:54.805Z,13.30
2023-05-12T01:53:22.450Z,13.70
2023-05-12T01:55:50.108Z,13.68
2023-05-12T01:58:19.418Z,14.23
2023-05-12T02:00:48.404Z,14.85
2023-05-12T02:03:16.471Z,12.57
2023-05-12T02:05:44.289Z,13.45
2023-05-12T02:08:12.047Z,12.75
2023-05-12T02:10:39.728Z,13.32
2023-05-12T02:13:07.316Z,13.68
2023-05-12T02:15:35.038Z,13.73
2023-05-12T02:18:04.505Z,13.10
2023-05-12T02:20:32.273Z,12.70
2023-05-12T02:23:00.835Z,13.88
2023-05-12T02:25:28.534Z,15.30
2023-05-12T02:27:56.180Z,12.80
2023-05-12T02:30:23.794Z,13.95
2023-05-12T02:32:51.474Z,15.60
2023-05-12T02:35:21.309Z,13.85
2023-05-12T02:37:49.026Z,13.52
2023-05-12T02:40:17.154Z,14.13
2023-05-12T02:42:45.509Z,14.05
2023-05-12T02:45:13.775Z,14.00
2023-05-12T02:47:41.657Z,13.82
2023-05-12T02:50:10.253Z,12.63
2023-05-12T02:52:39.244Z,14.30
2023-05-12T02:55:07.772Z,13.88
2023-05-12T02:57:35.823Z,13.20
2023-05-12T03:00:05.861Z,13.10
2023-05-12T03:02:34.153Z,14.05
2023-05-12T03:05:02.099Z,13.70
2023-05-12T03:07:30.325Z,13.13
2023-05-12T03:10:00.060Z,12.80
2023-05-12T03:12:29.257Z,12.40
2023-05-12T03:14:56.900Z,11.43
2023-05-12T03:17:24.735Z,12.88
2023-05-12T03:19:52.345Z,12.55
2023-05-12T03:22:20.138Z,13.30
2023-05-12T03:24:47.959Z,13.45
2023-05-12T03:27:16.905Z,13.07
2023-05-12T03:29:44.533Z,12.00
2023-05-12T03:32:12.322Z,14.02
2023-05-12T03:34:40.036Z,14.32
2023-05-12T03:37:07.887Z,12.90
2023-05-12T03:39:35.649Z,14.02
2023-05-12T03:42:03.392Z,12.75
2023-05-12T03:44:32.305Z,13.02
2023-05-12T03:47:00.102Z,13.98
2023-05-12T03:49:27.807Z,13.15
2023-05-12T03:51:55.579Z,13.05
2023-05-12T03:54:23.293Z,13.45
2023-05-12T03:56:50.999Z,12.90
2023-05-12T03:59:18.662Z,14.15
2023-05-12T04:01:47.723Z,12.52
2023-05-12T04:04:15.770Z,14.35
2023-05-12T04:06:43.568Z,13.82
2023-05-12T04:09:13.226Z,13.23
2023-05-12T04:11:40.906Z,14.57
2023-05-12T04:14:08.633Z,14.45
2023-05-12T04:16:36.800Z,13.20
2023-05-12T04:19:05.841Z,13.00
2023-05-12T04:21:33.581Z,13.63
2023-05-12T04:24:01.279Z,13.52
2023-05-12T04:26:28.996Z,13.32
2023-05-12T04:28:56.754Z,15.60
2023-05-12T04:31:24.395Z,13.82
2023-05-12T04:33:52.099Z,16.20
2023-05-12T04:36:21.160Z,14.57
2023-05-12T04:38:49.132Z,14.50
2023-05-12T04:41:17.048Z,14.18
2023-05-12T04:46:15.512Z,16.38
2023-05-12T04:48:43.579Z,14.48
2023-05-12T04:51:11.539Z,14.55
2023-05-12T04:53:40.997Z,15.27
2023-05-12T04:56:08.923Z,13.75
2023-05-12T04:58:36.882Z,15.77
2023-05-12T05:01:05.075Z,15.55
2023-05-12T05:03:33.009Z,14.05
2023-05-12T05:06:00.816Z,14.85
2023-05-12T05:08:28.536Z,14.68
2023-05-12T05:10:57.533Z,15.02
2023-05-12T05:13:25.202Z,12.93
2023-05-12T05:15:53.390Z,14.07
2023-05-12T05:18:24.058Z,13.00
2023-05-12T05:20:57.852Z,14.15
2023-05-12T05:23:26.642Z,11.90
2023-05-12T05:25:54.426Z,13.57
2023-05-12T05:28:23.484Z,13.60
2023-05-12T05:30:51.235Z,14.50
2023-05-12T05:33:18.816Z,13.05
2023-05-12T05:35:48.012Z,15.43
2023-05-12T05:38:15.753Z,14.95
2023-05-12T05:40:53.170Z,14.82
2023-05-12T05:43:23.075Z,13.20
2023-05-12T05:45:51.310Z,14.57
2023-05-12T05:48:19.285Z,14.02
2023-05-12T05:50:47.078Z,12.75
2023-05-12T05:53:14.775Z,14.88
2023-05-12T05:55:42.428Z,13.60
2023-05-12T05:58:10.251Z,13.00
2023-05-12T06:00:39.448Z,12.05
2023-05-12T06:03:07.460Z,13.65
2023-05-12T06:05:35.283Z,13.13
2023-05-12T06:08:02.999Z,14.02
2023-05-12T06:10:30.736Z,11.40
2023-05-12T06:12:58.439Z,12.45
2023-05-12T06:15:26.027Z,12.43
2023-05-12T06:17:55.165Z,11.02
2023-05-12T06:20:23.427Z,12.07
2023-05-12T06:22:51.176Z,13.13
2023-05-12T06:25:19.224Z,13.43
2023-05-12T06:27:47.113Z,13.35
2023-05-12T06:30:16.396Z,13.07
2023-05-12T06:32:44.280Z,10.63
2023-05-12T06:35:13.463Z,11.52
2023-05-12T06:37:41.074Z,11.60
2023-05-12T06:40:09.539Z,11.63
2023-05-12T06:42:37.299Z,12.43
2023-05-12T06:45:05.699Z,14.20
2023-05-12T06:47:33.657Z,13.02
2023-05-12T06:50:01.759Z,14.10
2023-05-12T06:52:30.720Z,12.52
2023-05-12T06:54:58.560Z,12.68
2023-05-12T06:57:26.339Z,12.02
2023-05-12T06:59:54.049Z,11.82
2023-05-12T07:02:21.946Z,12.05
2023-05-12T07:04:49.735Z,11.38
2023-05-12T07:07:17.314Z,11.77
2023-05-12T07:09:46.296Z,10.82
2023-05-12T07:12:13.929Z,10.85
2023-05-12T07:14:41.536Z,9.75
2023-05-12T07:17:09.135Z,10.05
2023-05-12T07:19:37.076Z,9.48
2023-05-12T07:22:05.011Z,9.50
2023-05-12T07:24:32.654Z,10.00
2023-05-12T07:27:02.531Z,8.70
2023-05-12T07:29:30.198Z,8.52
2023-05-12T07:31:57.875Z,7.28
2023-05-12T07:34:25.764Z,6.90
2023-05-12T07:36:53.621Z,8.07
2023-05-12T07:39:23.575Z,6.65
2023-05-12T07:41:53.510Z,6.63
2023-05-12T07:44:22.546Z,6.43
2023-05-12T07:46:50.575Z,6.97
2023-05-12T07:49:18.244Z,7.13
2023-05-12T07:51:45.934Z,6.80
2023-05-12T07:54:13.696Z,6.32
2023-05-12T07:56:41.425Z,6.65
2023-05-12T07:59:09.131Z,6.72
2023-05-12T08:01:38.216Z,6.63
2023-05-12T08:04:06.693Z,7.18
2023-05-12T08:06:34.427Z,6.40
2023-05-12T08:09:02.044Z,7.22
2023-05-12T08:11:29.858Z,6.70
2023-05-12T08:13:57.454Z,6.85
2023-05-12T08:16:25.101Z,7.40
2023-05-12T08:18:54.461Z,6.18
2023-05-12T08:21:22.253Z,6.90
2023-05-12T08:23:49.862Z,6.90
2023-05-12T08:26:17.455Z,7.10
2023-05-12T08:28:45.009Z,6.18
2023-05-12T08:31:13.104Z,7.10
2023-05-12T08:33:40.815Z,7.25
2023-05-12T08:36:09.930Z,6.40
2023-05-12T08:38:37.720Z,6.18
2023-05-12T08:41:13.372Z,7.85
2023-05-12T08:43:45.174Z,6.85
2023-05-12T08:46:12.962Z,7.70
2023-05-12T08:48:41.488Z,6.45
2023-05-12T08:51:12.826Z,5.68
2023-05-12T08:53:42.415Z,6.25
2023-05-12T08:58:43.709Z,6.53
2023-05-12T09:01:14.666Z,7.63
2023-05-12T09:03:44.218Z,6.18
2023-05-12T09:06:14.899Z,6.13
2023-05-12T09:08:42.878Z,6.25
2023-05-12T09:11:13.329Z,6.03
2023-05-12T09:13:49.618Z,7.25
2023-05-12T09:16:20.496Z,6.93
2023-05-12T09:18:51.483Z,7.10
2023-05-12T09:21:20.788Z,6.47
2023-05-12T09:23:59.497Z,5.95
2023-05-12T09:26:28.815Z,5.78
2023-05-12T09:29:06.260Z,6.38
2023-05-12T09:31:34.160Z,6.00
2023-05-12T09:34:02.413Z,7.10
2023-05-12T09:36:35.332Z,6.28
2023-05-12T09:39:05.306Z,6.07
2023-05-12T09:41:36.126Z,6.70
2023-05-12T09:44:04.739Z,6.05
2023-05-12T09:46:32.589Z,6.78
2023-05-12T09:49:01.069Z,5.47
2023-05-12T09:51:29.200Z,5.97
2023-05-12T09:53:58.300Z,6.57
2023-05-12T09:56:28.878Z,6.20
2023-05-12T09:58:57.931Z,7.25
2023-05-12T10:01:26.379Z,5.88
2023-05-12T10:03:55.830Z,5.47
2023-05-12T10:06:28.081Z,6.18
2023-05-12T10:09:05.185Z,5.65
2023-05-12T10:11:36.698Z,5.35
2023-05-12T10:14:06.582Z,4.85
2023-05-12T10:16:34.711Z,5.45
2023-05-12T10:19:04.329Z,5.32
2023-05-12T10:21:32.721Z,5.20
2023-05-12T10:24:05.952Z,5.22
2023-05-12T10:26:34.893Z,4.70
2023-05-12T10:29:03.245Z,5.15
2023-05-12T10:31:33.752Z,4.93
2023-05-12T10:34:03.355Z,4.90
2023-05-12T10:36:31.458Z,4.97
2023-05-12T10:39:07.071Z,5.50
2023-05-12T10:41:36.177Z,5.28
2023-05-12T10:44:03.763Z,4.68
2023-05-12T10:46:31.644Z,5.25
2023-05-12T10:49:00.954Z,5.05
2023-05-12T10:51:30.338Z,4.10
2023-05-12T10:53:59.356Z,4.47
2023-05-12T10:56:30.516Z,5.88
2023-05-12T10:59:17.387Z,4.07
2023-05-12T11:02:03.109Z,5.13
2023-05-12T11:04:41.647Z,4.90
2023-05-12T11:07:11.712Z,4.43
2023-05-12T11:09:53.094Z,4.35
2023-05-12T11:12:27.631Z,3.92
2023-05-12T11:14:55.588Z,6.38
2023-05-12T11:17:23.340Z,5.72
2023-05-12T11:19:52.453Z,5.38
2023-05-12T11:22:22.460Z,5.22
2023-05-12T11:24:52.381Z,5.80
2023-05-12T11:27:22.475Z,4.82
2023-05-12T11:29:58.332Z,5.00
2023-05-12T11:32:26.260Z,4.80
2023-05-12T11:34:54.103Z,6.07
2023-05-12T11:37:21.854Z,4.57
2023-05-12T11:39:50.028Z,5.60
2023-05-12T11:42:19.704Z,4.43
2023-05-12T11:44:50.096Z,5.20
2023-05-12T11:47:22.138Z,4.93
2023-05-12T11:49:53.116Z,5.35
2023-05-12T11:52:24.891Z,5.25
2023-05-12T11:54:54.075Z,5.05
2023-05-12T11:57:28.285Z,5.03
2023-05-12T12:00:01.787Z,4.18
2023-05-12T12:02:32.613Z,4.75
2023-05-12T12:05:00.767Z,5.32
2023-05-12T12:07:32.422Z,4.63
2023-05-12T12:10:03.432Z,4.13
2023-05-12T12:12:31.267Z,4.45
2023-05-12T12:15:00.257Z,5.55
2023-05-12T12:17:30.959Z,4.55
2023-05-12T12:20:00.260Z,4.03
2023-05-12T12:22:32.500Z,4.35
2023-05-12T12:25:01.636Z,4.32
2023-05-12T12:27:29.495Z,3.90
2023-05-12T12:29:57.701Z,3.88
2023-05-12T12:32:26.039Z,4.63
2023-05-12T12:34:53.733Z,3.90
2023-05-12T12:37:22.714Z,3.92
2023-05-12T12:39:50.353Z,5.03
2023-05-12T12:42:18.106Z,5.03
2023-05-12T12:44:50.150Z,4.35
2023-05-12T12:47:19.035Z,5.22
2023-05-12T12:49:46.812Z,5.43
2023-05-12T12:52:14.708Z,4.63
2023-05-12T12:54:43.781Z,5.60
2023-05-12T12:57:11.404Z,5.43
2023-05-12T12:59:39.075Z,5.03
2023-05-12T13:02:07.069Z,4.07
2023-05-12T13:04:34.802Z,4.70
2023-05-12T13:07:02.533Z,4.10
2023-05-12T13:09:30.567Z,3.85
2023-05-12T13:12:00.927Z,3.42
2023-05-12T13:14:28.856Z,3.47
2023-05-12T13:16:56.551Z,3.92
2023-05-12T13:19:24.226Z,3.67
2023-05-12T13:21:52.136Z,3.67
2023-05-12T13:24:19.817Z,4.28
2023-05-12T13:26:47.497Z,3.38
2023-05-12T13:29:16.623Z,4.05
2023-05-12T13:31:45.760Z,3.78
2023-05-12T13:34:13.957Z,3.42
2023-05-12T13:36:41.943Z,4.05
2023-05-12T13:39:10.118Z,3.55
2023-05-12T13:41:37.917Z,4.43
2023-05-12T13:44:06.240Z,3.47
2023-05-12T13:46:35.572Z,3.50
2023-05-12T13:49:03.580Z,3.53
2023-05-12T13:51:32.380Z,3.83
2023-05-12T13:54:00.222Z,3.22
2023-05-12T13:56:27.809Z,4.35
2023-05-12T13:58:55.583Z,3.35
2023-05-12T14:01:23.306Z,3.70
2023-05-12T14:03:52.540Z,3.45
2023-05-12T14:06:20.209Z,3.35
2023-05-12T14:08:48.263Z,3.00
2023-05-12T14:11:16.736Z,2.97
2023-05-12T14:13:44.462Z,5.38
2023-05-12T14:16:13.930Z,4.65
2023-05-12T14:18:43.356Z,4.00
2023-05-12T14:21:12.905Z,4.07
2023-05-12T14:23:40.506Z,3.92
2023-05-12T14:26:08.172Z,3.58
2023-05-12T14:28:36.020Z,3.45
2023-05-12T14:31:03.871Z,5.15
2023-05-12T14:33:32.266Z,5.32
2023-05-12T14:36:07.168Z,3.88
2023-05-12T14:38:37.862Z,3.42
2023-05-12T14:41:08.078Z,3.60
2023-05-12T14:43:35.865Z,3.65
2023-05-12T14:46:04.383Z,3.60
2023-05-12T14:48:32.261Z,3.88
2023-05-12T14:51:00.296Z,4.30
2023-05-12T14:53:27.971Z,3.70
2023-05-12T14:55:56.955Z,3.63
2023-05-12T14:58:24.954Z,3.58
2023-05-12T15:00:54.307Z,3.33
2023-05-12T15:03:22.389Z,3.65
2023-05-12T15:08:21.577Z,3.47
2023-05-12T15:10:49.790Z,3.58
2023-05-12T15:13:20.373Z,3.97
2023-05-12T15:15:48.329Z,3.28
2023-05-12T15:18:16.283Z,3.03
2023-05-12T15:20:43.950Z,3.30
2023-05-12T15:23:11.562Z,3.58
2023-05-12T15:25:40.158Z,4.70
2023-05-12T15:28:08.310Z,3.50
2023-05-12T15:30:37.322Z,4.00
2023-05-12T15:33:05.899Z,3.90
2023-05-12T15:35:33.678Z,3.95
2023-05-12T15:38:01.551Z,3.65
2023-05-12T15:40:30.608Z,3.58
2023-05-12T15:42:58.319Z,4.10
2023-05-12T15:45:26.063Z,4.40
2023-05-12T15:47:56.203Z,3.70
2023-05-12T15:50:24.560Z,3.22
2023-05-12T15:52:52.689Z,3.70
2023-05-12T15:55:21.510Z,3.65
2023-05-12T15:57:50.220Z,3.75
2023-05-12T16:00:19.394Z,3.47
2023-05-12T16:02:47.776Z,3.42
2023-05-12T16:05:17.188Z,3.83
2023-05-12T16:07:44.839Z,5.10
2023-05-12T16:10:12.476Z,4.45
2023-05-12T16:12:40.822Z,3.55
2023-05-12T16:15:09.559Z,3.88
2023-05-12T16:17:37.190Z,4.20
2023-05-12T16:20:05.749Z,2.95
2023-05-12T16:22:35.202Z,3.67
2023-05-12T16:25:02.768Z,3.55
2023-05-12T16:27:31.969Z,3.58
2023-05-12T16:29:59.704Z,3.40
2023-05-12T16:32:27.454Z,3.47
2023-05-12T16:34:56.023Z,4.43
2023-05-12T16:37:23.889Z,4.78
2023-05-12T16:39:53.050Z,4.00
2023-05-12T16:42:21.036Z,3.75
2023-05-12T16:44:48.775Z,4.15
2023-05-12T16:47:16.470Z,4.13
2023-05-12T16:49:44.402Z,4.30
2023-05-12T16:52:12.629Z,4.25
2023-05-12T16:54:40.368Z,4.00
2023-05-12T16:57:09.396Z,4.70
2023-05-12T16:59:38.631Z,4.72
2023-05-12T17:02:08.444Z,4.18
2023-05-12T17:04:36.508Z,4.63
2023-05-12T17:07:04.217Z,3.70
2023-05-12T17:09:31.939Z,3.65
2023-05-12T17:11:59.696Z,3.63
2023-05-12T17:14:28.587Z,3.13
2023-05-12T17:16:56.504Z,3.42
2023-05-12T17:19:24.793Z,3.78
2023-05-12T17:21:52.816Z,4.35
2023-05-12T17:24:20.740Z,4.00
2023-05-12T17:26:48.252Z,2.85
2023-05-12T17:29:16.040Z,3.67
2023-05-12T17:31:45.138Z,3.72
2023-05-12T17:34:12.979Z,3.70
2023-05-12T17:36:40.923Z,4.75
2023-05-12T17:39:08.749Z,5.07
2023-05-12T17:41:36.561Z,4.60
2023-05-12T17:44:04.878Z,3.88
2023-05-12T17:46:32.784Z,4.20
2023-05-12T17:49:01.792Z,3.38
2023-05-12T17:51:30.675Z,4.22
2023-05-12T17:53:58.435Z,4.03
2023-05-12T17:56:26.478Z,4.75
2023-05-12T17:58:54.498Z,4.55
2023-05-12T18:01:22.373Z,3.70
2023-05-12T18:03:50.100Z,4.70
2023-05-12T18:06:19.058Z,3.63
2023-05-12T18:08:47.189Z,3.85
2023-05-12T18:11:15.142Z,3.72
2023-05-12T18:13:42.912Z,3.60
2023-05-12T18:16:21.272Z,4.97
2023-05-12T18:18:55.914Z,3.88
2023-05-12T18:21:25.237Z,3.92
2023-05-12T18:23:52.891Z,8.63
2023-05-12T18:26:20.868Z,6.20
2023-05-12T18:28:48.844Z,5.22
2023-05-12T18:31:19.541Z,4.30
2023-05-12T18:33:48.511Z,4.97
2023-05-12T18:36:16.937Z,3.72
2023-05-12T18:38:46.573Z,3.88
2023-05-12T18:41:14.208Z,4.50
2023-05-12T18:43:44.179Z,3.33
2023-05-12T18:46:12.439Z,3.72
2023-05-12T18:48:40.337Z,4.13
2023-05-12T18:51:08.142Z,3.90
2023-05-12T18:53:35.957Z,3.78
2023-05-12T18:56:05.022Z,4.35
2023-05-12T18:58:32.836Z,3.90
2023-05-12T19:01:00.637Z,3.80
2023-05-12T19:03:28.758Z,3.22
2023-05-12T19:05:56.691Z,4.57
2023-05-12T19:08:24.463Z,4.63
2023-05-12T19:10:52.335Z,4.30
2023-05-12T19:13:21.640Z,3.33
2023-05-12T19:15:49.571Z,4.68
2023-05-12T19:18:17.655Z,4.50
2023-05-12T19:20:45.573Z,3.80
2023-05-12T19:23:13.495Z,4.03
2023-05-12T19:25:42.928Z,3.53
2023-05-12T19:28:12.147Z,3.92
2023-05-12T19:30:41.325Z,3.80
2023-05-12T19:33:09.206Z,4.07
2023-05-12T19:35:37.372Z,3.60
2023-05-12T19:38:05.238Z,3.78
2023-05-12T19:40:33.424Z,4.30
2023-05-12T19:43:01.984Z,4.13
2023-05-12T19:45:30.350Z,4.30
2023-05-12T19:48:03.051Z,3.97
2023-05-12T19:50:30.911Z,4.65
2023-05-12T19:52:59.122Z,4.75
2023-05-12T19:55:26.886Z,4.72
2023-05-12T19:57:54.742Z,4.53
2023-05-12T20:00:22.519Z,4.60
2023-05-12T20:02:50.879Z,5.28
2023-05-12T20:05:20.961Z,4.43
2023-05-12T20:07:49.543Z,4.95
2023-05-12T20:10:17.569Z,4.93
2023-05-12T20:12:45.322Z,4.65
2023-05-12T20:15:13.266Z,5.07
2023-05-12T20:17:41.102Z,5.45
2023-05-12T20:20:11.678Z,4.97
2023-05-12T20:22:41.014Z,5.07
2023-05-12T20:25:12.436Z,5.25
2023-05-12T20:27:40.133Z,5.47
2023-05-12T20:30:09.446Z,4.00
2023-05-12T20:32:37.593Z,4.65
2023-05-12T20:35:06.540Z,4.45
2023-05-12T20:37:34.431Z,4.88
2023-05-12T20:40:05.491Z,6.75
2023-05-12T20:42:33.313Z,6.25
2023-05-12T20:45:01.259Z,5.57
2023-05-12T20:47:30.803Z,6.40
2023-05-12T20:50:00.598Z,5.35
2023-05-12T20:52:29.018Z,6.00
2023-05-12T20:54:58.710Z,5.82
2023-05-12T20:57:28.015Z,5.70
2023-05-12T20:59:56.976Z,6.70
2023-05-12T21:02:24.960Z,5.85
2023-05-12T21:04:52.835Z,6.25
2023-05-12T21:07:21.137Z,6.55
2023-05-12T21:09:48.815Z,6.25
2023-05-12T21:12:16.445Z,6.63
2023-05-12T21:14:46.252Z,6.72
2023-05-12T21:17:13.964Z,6.93
2023-05-12T21:19:41.885Z,6.63
2023-05-12T21:22:10.367Z,5.55
2023-05-12T21:24:39.364Z,5.75
2023-05-12T21:27:08.044Z,6.07
2023-05-12T21:29:36.396Z,6.85
2023-05-12T21:32:06.093Z,7.38
2023-05-12T21:34:35.948Z,6.75
2023-05-12T21:37:03.840Z,6.32
2023-05-12T21:39:31.446Z,6.50
2023-05-12T21:41:59.066Z,6.47
2023-05-12T21:44:26.762Z,6.30
2023-05-12T21:46:54.462Z,6.45
2023-05-12T21:49:23.481Z,5.90
2023-05-12T21:51:51.651Z,5.78
2023-05-12T21:54:19.356Z,6.20
2023-05-12T21:56:47.075Z,5.95
2023-05-12T21:59:14.716Z,5.70
2023-05-12T22:01:42.844Z,6.90
2023-05-12T22:04:11.079Z,6.00
2023-05-12T22:06:40.203Z,5.07
2023-05-12T22:09:07.868Z,6.35
2023-05-12T22:11:35.606Z,6.03
2023-05-12T22:14:04.185Z,5.68
2023-05-12T22:16:41.299Z,6.10
2023-05-12T22:19:10.068Z,6.25
2023-05-12T22:21:38.027Z,5.53
2023-05-12T22:24:07.818Z,6.38
2023-05-12T22:26:35.622Z,5.13
2023-05-12T22:29:03.271Z,5.97
2023-05-12T22:31:30.968Z,5.72
2023-05-12T22:33:58.628Z,5.63
2023-05-12T22:36:26.440Z,5.90
2023-05-12T22:38:54.032Z,6.82
2023-05-12T22:41:23.126Z,5.68
2023-05-12T22:43:50.809Z,5.20
2023-05-12T22:46:18.684Z,5.15
2023-05-12T22:48:46.480Z,5.63
2023-05-12T22:51:14.260Z,5.82
2023-05-12T22:53:42.217Z,5.90
2023-05-12T22:56:09.961Z,5.80
2023-05-12T22:58:39.193Z,5.38
2023-05-12T23:01:07.323Z,6.18
2023-05-12T23:03:35.150Z,6.10
2023-05-12T23:06:03.139Z,6.68
2023-05-12T23:08:30.808Z,6.15
2023-05-12T23:10:58.451Z,5.93
2023-05-12T23:13:26.214Z,6.82
2023-05-12T23:15:55.402Z,5.97
2023-05-12T23:18:23.268Z,7.50
2023-05-12T23:20:50.899Z,5.60
2023-05-12T23:23:18.630Z,5.80
2023-05-12T23:25:47.689Z,5.45
2023-05-12T23:28:15.370Z,5.18
2023-05-12T23:30:43.028Z,6.88
2023-05-12T23:33:12.139Z,6.15
2023-05-12T23:35:39.997Z,5.65
2023-05-12T23:38:07.905Z,5.25
2023-05-12T23:40:38.912Z,5.82
2023-05-12T23:43:06.793Z,6.15
2023-05-12T23:45:34.902Z,5.25
2023-05-12T23:48:02.686Z,6.03
2023-05-12T23:50:31.774Z,6.07
2023-05-12T23:52:59.382Z,5.50
2023-05-12T23:55:27.039Z,5.30
2023-05-12T23:57:54.607Z,5.25
